| time (UTC) | temp C | wind direction | speed KPH | gust KPH | rain 1hr cm | rain 24hr cm | rain mn cm | humidity % | barometer mb |
| 20260906114520 | 21 | 44 | 0.0 | 0.0 | 0.00 | 0.41 | 0.00 | 100 | 1011.1 |
| 20260906113020 | 21 | 44 | 0.0 | 0.0 | 0.00 | 0.41 | 0.00 | 100 | 1011.0 |
| 20260906111519 | 21 | 44 | 0.0 | 0.0 | 0.00 | 0.41 | 0.00 | 99 | 1010.9 |
| 20260906110019 | 21 | 44 | 0.0 | 0.0 | 0.00 | 0.41 | 0.00 | 99 | 1011.0 |
| 20260906104519 | 21 | 44 | 0.0 | 0.0 | 0.00 | 0.41 | 0.00 | 99 | 1010.8 |
| 20260906103019 | 21 | 44 | 0.0 | 0.0 | 0.00 | 0.41 | 0.00 | 99 | 1010.8 |
| 20260906101518 | 21 | 45 | 0.0 | 0.0 | 0.00 | 0.41 | 0.00 | 99 | 1010.7 |
| 20260906100018 | 21 | 45 | 0.0 | 0.0 | 0.00 | 0.41 | 0.00 | 99 | 1010.7 |
| 20260906094517 | 21 | 45 | 0.0 | 0.0 | 0.00 | 0.41 | 0.00 | 99 | 1010.8 |
| 20260906093028 | 21 | 45 | 0.0 | 0.0 | 0.00 | 0.41 | 0.00 | 99 | 1010.8 |
| 20260906091515 | 21 | 45 | 0.0 | 0.0 | 0.00 | 0.41 | 0.00 | 99 | 1010.7 |
| 20260906090015 | 21 | 45 | 0.0 | 0.0 | 0.00 | 0.41 | 0.00 | 99 | 1010.6 |
| 20260906084515 | 21 | 45 | 0.0 | 0.0 | 0.00 | 0.41 | 0.00 | 99 | 1010.7 |
| 20260906083017 | 21 | 45 | 0.0 | 0.0 | 0.00 | 0.41 | 0.00 | 99 | 1010.7 |
| 20260906081516 | 21 | 45 | 0.0 | 0.0 | 0.00 | 0.41 | 0.00 | 99 | 1010.7 |
| 20260906080012 | 21 | 44 | 0.0 | 0.0 | 0.00 | 0.41 | 0.00 | 99 | 1010.4 |
| 20260906074512 | 21 | 45 | 0.0 | 0.0 | 0.00 | 0.41 | 0.00 | 99 | 1010.5 |
| 20260906073013 | 21 | 44 | 0.0 | 0.0 | 0.00 | 0.41 | 0.00 | 99 | 1010.4 |
| 20260906071510 | 21 | 44 | 0.0 | 0.0 | 0.00 | 0.41 | 0.00 | 99 | 1010.4 |
| 20260906070009 | 21 | 51 | 0.0 | 0.0 | 0.00 | 0.41 | 0.00 | 99 | 1010.6 |
| 20260906064511 | 21 | 51 | 0.0 | 0.0 | 0.00 | 0.41 | 0.00 | 99 | 1010.6 |
| 20260906063008 | 21 | 51 | 0.0 | 0.0 | 0.00 | 0.41 | 0.00 | 99 | 1010.8 |
| 20260906061507 | 21 | 51 | 0.0 | 0.0 | 0.00 | 0.41 | 0.00 | 99 | 1010.8 |
| 20260906060004 | 21 | 51 | 0.0 | 0.0 | 0.00 | 0.41 | 0.00 | 99 | 1011.0 |
| 20260906054501 | 21 | 51 | 0.0 | 1.6 | 0.00 | 0.41 | 0.00 | 100 | 1011.3 |
| 20260906053101 | 21 | 50 | 0.0 | 0.0 | 0.00 | 0.41 | 0.00 | 99 | 1011.4 |
| 20260906051601 | 21 | 50 | 0.0 | 0.0 | 0.00 | 0.41 | 0.00 | 99 | 1011.4 |
| 20260906050057 | 21 | 50 | 0.0 | 0.0 | 0.00 | 0.41 | 0.00 | 99 | 1011.4 |
| 20260906044554 | 21 | 49 | 0.0 | 1.6 | 0.00 | 0.41 | 0.00 | 99 | 1011.5 |
| 20260906043051 | 21 | 49 | 0.0 | 1.6 | 0.00 | 0.41 | 0.00 | 98 | 1011.4 |
| 20260906041549 | 21 | 42 | 0.0 | 0.0 | 0.00 | 0.41 | 0.00 | 98 | 1011.0 |
| 20260906040048 | 21 | 36 | 0.0 | 0.0 | 0.00 | 0.41 | 0.00 | 98 | 1010.9 |
| 20260906034545 | 21 | 55 | 0.0 | 1.6 | 0.00 | 0.41 | 0.41 | 98 | 1010.9 |
| 20260906033045 | 21 | 45 | 0.0 | 1.6 | 0.00 | 0.41 | 0.41 | 98 | 1010.9 |
| 20260906031544 | 21 | 48 | 0.0 | 1.6 | 0.00 | 0.41 | 0.41 | 98 | 1010.8 |
| 20260906030143 | 21 | 45 | 0.0 | 1.6 | 0.00 | 0.41 | 0.41 | 98 | 1011.1 |
| 20260906024543 | 21 | 45 | 0.0 | 0.0 | 0.00 | 0.41 | 0.41 | 98 | 1010.9 |
| 20260906023046 | 21 | 46 | 0.0 | 0.0 | 0.03 | 0.41 | 0.41 | 98 | 1010.9 |
| 20260906021543 | 21 | 46 | 0.0 | 1.6 | 0.03 | 0.41 | 0.41 | 98 | 1011.3 |
| 20260906020042 | 21 | 42 | 0.0 | 0.0 | 0.03 | 0.41 | 0.41 | 97 | 1011.5 |
| 20260906014545 | 21 | 46 | 0.0 | 1.6 | 0.05 | 0.41 | 0.41 | 97 | 1011.6 |
| 20260906013041 | 21 | 46 | 0.0 | 0.0 | 0.08 | 0.38 | 0.38 | 97 | 1011.7 |
| 20260906011539 | 21 | 52 | 0.0 | 1.6 | 0.15 | 0.38 | 0.38 | 97 | 1011.4 |
| 20260906010039 | 21 | 329 | 0.0 | 0.0 | 0.38 | 0.38 | 0.38 | 96 | 1010.6 |
| 20260906004541 | 21 | 329 | 0.0 | 4.8 | 0.36 | 0.36 | 0.36 | 95 | 1010.3 |
| 20260906003038 | 21 | 121 | 0.0 | 4.8 | 0.30 | 0.30 | 0.30 | 94 | 1011.0 |
| 20260906001537 | 21 | 260 | 0.0 | 4.8 | 0.20 | 0.20 | 0.20 | 90 | 1010.5 |
| 20260905234528 | 27 | 81 | 4.8 | 16.1 | 0.03 | 0.03 | 0.03 | 71 | 1011.5 |
| 20260905233028 | 31 | 325 | 0.0 | 16.1 | 0.00 | 0.00 | 0.00 | 73 | 1009.5 |
| 20260905231527 | 32 | 252 | 9.7 | 20.9 | 0.00 | 0.00 | 0.00 | 68 | 1008.4 |
| 20260905230126 | 33 | 262 | 9.7 | 20.9 | 0.00 | 0.00 | 0.00 | 66 | 1008.4 |
| 20260905224525 | 34 | 279 | 9.7 | 14.5 | 0.00 | 0.00 | 0.00 | 63 | 1008.5 |
| 20260905223025 | 35 | 163 | 0.0 | 0.0 | 0.00 | 0.00 | 0.00 | 56 | 1008.5 |
| 20260905221534 | 35 | 233 | 3.2 | 8.0 | 0.00 | 0.00 | 0.00 | 53 | 1008.2 |
| 20260905220023 | 35 | 233 | 1.6 | 4.8 | 0.00 | 0.00 | 0.00 | 50 | 1008.1 |
| 20260905214522 | 35 | 257 | 0.0 | 4.8 | 0.00 | 0.00 | 0.00 | 50 | 1008.0 |
| 20260905213031 | 36 | 238 | 1.6 | 4.8 | 0.00 | 0.00 | 0.00 | 53 | 1008.0 |
| 20260905211521 | 36 | 210 | 3.2 | 6.4 | 0.00 | 0.00 | 0.00 | 48 | 1008.1 |
| 20260905210025 | 36 | 237 | 3.2 | 6.4 | 0.00 | 0.00 | 0.00 | 48 | 1008.4 |
| 20260905204515 | 36 | 240 | 3.2 | 6.4 | 0.00 | 0.00 | 0.00 | 49 | 1008.5 |
| 20260905203014 | 36 | 255 | 3.2 | 6.4 | 0.00 | 0.00 | 0.00 | 49 | 1008.7 |
| 20260905201516 | 36 | 238 | 0.0 | 6.4 | 0.00 | 0.00 | 0.00 | 48 | 1008.9 |
| 20260905200006 | 36 | 232 | 0.0 | 4.8 | 0.00 | 0.00 | 0.00 | 49 | 1009.3 |
| 20260905194503 | 36 | 264 | 1.6 | 6.4 | 0.00 | 0.00 | 0.00 | 50 | 1009.6 |
| 20260905193059 | 35 | 247 | 3.2 | 9.7 | 0.00 | 0.00 | 0.00 | 51 | 1009.8 |
| 20260905191557 | 35 | 235 | 4.8 | 9.7 | 0.00 | 0.00 | 0.00 | 52 | 1009.9 |
| 20260905190112 | 35 | 245 | 6.4 | 9.7 | 0.00 | 0.00 | 0.00 | 53 | 1009.9 |
| 20260905184606 | 35 | 250 | 3.2 | 8.0 | 0.00 | 0.00 | 0.00 | 53 | 1010.1 |
| 20260905183049 | 34 | 263 | 3.2 | 9.7 | 0.00 | 0.00 | 0.00 | 55 | 1010.4 |
| 20260905181545 | 33 | 244 | 8.0 | 11.3 | 0.00 | 0.00 | 0.00 | 57 | 1010.8 |
| 20260905180043 | 33 | 234 | 1.6 | 6.4 | 0.00 | 0.00 | 0.00 | 57 | 1010.8 |
| 20260905174545 | 33 | 226 | 3.2 | 6.4 | 0.00 | 0.00 | 0.00 | 58 | 1011.1 |
| 20260905173039 | 33 | 244 | 0.0 | 9.7 | 0.00 | 0.00 | 0.00 | 57 | 1011.3 |
| 20260905171536 | 33 | 211 | 0.0 | 8.0 | 0.00 | 0.00 | 0.00 | 57 | 1011.4 |
| 20260905170035 | 34 | 224 | 0.0 | 4.8 | 0.00 | 0.00 | 0.00 | 56 | 1011.5 |
| 20260905164531 | 34 | 226 | 0.0 | 3.2 | 0.00 | 0.00 | 0.00 | 56 | 1011.9 |
| 20260905163028 | 33 | 144 | 0.0 | 6.4 | 0.00 | 0.00 | 0.00 | 60 | 1012.1 |
| 20260905161526 | 33 | 224 | 3.2 | 8.0 | 0.00 | 0.00 | 0.00 | 60 | 1012.3 |
| 20260905160023 | 33 | 224 | 3.2 | 8.0 | 0.00 | 0.00 | 0.00 | 61 | 1012.5 |
| 20260905154521 | 32 | 233 | 4.8 | 11.3 | 0.00 | 0.00 | 0.00 | 63 | 1012.5 |
| 20260905153018 | 32 | 117 | 1.6 | 12.9 | 0.00 | 0.00 | 0.00 | 65 | 1012.6 |
| 20260905151514 | 31 | 269 | 3.2 | 11.3 | 0.00 | 0.00 | 0.00 | 70 | 1012.7 |
| 20260905150010 | 30 | 179 | 3.2 | 8.0 | 0.00 | 0.00 | 0.00 | 72 | 1012.8 |
| 20260905144507 | 30 | 200 | 0.0 | 9.7 | 0.00 | 0.00 | 0.00 | 74 | 1013.0 |
| 20260905143004 | 30 | 255 | 3.2 | 6.4 | 0.00 | 0.00 | 0.00 | 76 | 1013.1 |
| 20260905141628 | 28 | 138 | 3.2 | 6.4 | 0.00 | 0.00 | 0.00 | 78 | 1013.2 |
| 20260905140057 | 28 | 211 | 0.0 | 4.8 | 0.00 | 0.00 | 0.00 | 80 | 1013.2 |
| 20260905134553 | 27 | 141 | 0.0 | 3.2 | 0.00 | 0.00 | 0.00 | 83 | 1013.2 |
| 20260905133049 | 27 | 124 | 0.0 | 1.6 | 0.00 | 0.00 | 0.00 | 87 | 1013.4 |
| 20260905131558 | 26 | 113 | 0.0 | 1.6 | 0.00 | 0.00 | 0.00 | 89 | 1013.4 |
| 20260905130045 | 25 | 228 | 0.0 | 1.6 | 0.00 | 0.00 | 0.00 | 92 | 1013.5 |
| 20260905124549 | 25 | 195 | 0.0 | 0.0 | 0.00 | 0.00 | 0.00 | 96 | 1013.4 |
| 20260905123054 | 24 | 153 | 0.0 | 0.0 | 0.00 | 0.00 | 0.00 | 97 | 1013.6 |
| 20260905121542 | 23 | 153 | 0.0 | 0.0 | 0.00 | 0.00 | 0.00 | 97 | 1013.5 |
| 20260905120041 | 23 | 153 | 0.0 | 0.0 | 0.00 | 0.00 | 0.00 | 97 | 1013.3 |